createdAt,value
2022-09-11T00:01:47.133Z,1.33
2022-09-11T00:04:18.361Z,1.20
2022-09-11T00:06:46.678Z,1.63
2022-09-11T00:09:14.604Z,1.10
2022-09-11T00:11:43.812Z,2.07
2022-09-11T00:14:14.772Z,1.70
2022-09-11T00:16:45.844Z,1.30
2022-09-11T00:19:17.702Z,1.60
2022-09-11T00:21:46.957Z,1.80
2022-09-11T00:24:14.786Z,1.50
2022-09-11T00:26:43.004Z,1.97
2022-09-11T00:29:11.042Z,2.00
2022-09-11T00:31:39.441Z,1.40
2022-09-11T00:34:07.591Z,1.50
2022-09-11T00:36:39.207Z,1.50
2022-09-11T00:39:07.935Z,1.73
2022-09-11T00:41:39.024Z,2.10
2022-09-11T00:44:18.826Z,2.23
2022-09-11T00:46:55.886Z,2.00
2022-09-11T00:49:40.952Z,1.87
2022-09-11T00:52:11.721Z,1.80
2022-09-11T00:54:53.290Z,1.60
2022-09-11T00:57:24.453Z,1.93
2022-09-11T00:59:55.820Z,1.60
2022-09-11T01:02:27.538Z,1.50
2022-09-11T01:04:57.781Z,1.40
2022-09-11T01:07:27.140Z,1.43
2022-09-11T01:09:55.854Z,2.93
2022-09-11T01:13:03.309Z,1.53
2022-09-11T01:16:08.570Z,1.77
2022-09-11T01:18:55.459Z,1.70
2022-09-11T01:21:45.079Z,1.40
2022-09-11T01:24:39.859Z,1.20
2022-09-11T01:27:39.625Z,1.50
2022-09-11T01:30:21.297Z,1.57
2022-09-11T01:33:06.878Z,2.73
2022-09-11T01:36:02.301Z,1.97
2022-09-11T01:38:44.030Z,1.30
2022-09-11T01:41:28.843Z,1.47
2022-09-11T01:44:12.449Z,1.80
2022-09-11T01:46:47.628Z,1.47
2022-09-11T01:49:25.826Z,1.70
2022-09-11T01:51:58.991Z,1.70
2022-09-11T01:54:33.879Z,2.37
2022-09-11T01:57:11.009Z,2.60
2022-09-11T01:59:47.092Z,2.00
2022-09-11T02:02:23.856Z,1.83
2022-09-11T02:05:03.732Z,2.00
2022-09-11T02:07:46.932Z,2.10
2022-09-11T02:10:40.117Z,1.50
2022-09-11T02:13:49.079Z,1.60
2022-09-11T02:16:46.112Z,1.60
2022-09-11T02:19:43.736Z,2.00
2022-09-11T02:22:24.787Z,1.63
2022-09-11T02:25:28.327Z,1.77
2022-09-11T02:27:57.106Z,1.60
2022-09-11T02:30:25.152Z,1.43
2022-09-11T02:32:55.803Z,1.90
2022-09-11T02:35:34.759Z,1.60
2022-09-11T02:38:22.271Z,1.90
2022-09-11T02:41:13.820Z,1.87
2022-09-11T02:43:46.675Z,1.67
2022-09-11T02:46:59.505Z,1.60
2022-09-11T02:49:47.006Z,2.30
2022-09-11T02:52:33.916Z,2.03
2022-09-11T02:55:11.719Z,2.27
2022-09-11T02:57:46.963Z,1.50
2022-09-11T03:00:15.273Z,2.00
2022-09-11T03:02:44.284Z,2.33
2022-09-11T03:05:13.458Z,1.97
2022-09-11T03:07:41.678Z,1.50
2022-09-11T03:10:11.203Z,1.70
2022-09-11T03:12:39.828Z,1.70
2022-09-11T03:15:12.084Z,1.80
2022-09-11T03:17:40.229Z,1.87
2022-09-11T03:20:08.665Z,1.93
2022-09-11T03:22:35.644Z,1.60
2022-09-11T03:25:04.500Z,2.30
2022-09-11T03:27:31.828Z,1.70
2022-09-11T03:30:02.263Z,1.70
2022-09-11T03:32:32.319Z,2.60
2022-09-11T03:35:01.966Z,1.83
2022-09-11T03:37:31.672Z,1.80
2022-09-11T03:40:01.942Z,1.63
2022-09-11T03:42:29.650Z,1.40
2022-09-11T03:44:57.959Z,1.90
2022-09-11T03:47:26.917Z,1.80
2022-09-11T03:49:56.437Z,1.77
2022-09-11T03:52:23.661Z,1.47
2022-09-11T03:54:51.757Z,1.70
2022-09-11T03:57:19.830Z,1.47
2022-09-11T03:59:47.635Z,2.10
2022-09-11T04:02:16.145Z,1.70
2022-09-11T04:04:43.698Z,1.50
2022-09-11T04:07:12.105Z,1.50
2022-09-11T04:09:39.675Z,1.60
2022-09-11T04:12:08.167Z,3.77
2022-09-11T04:14:35.734Z,1.53
2022-09-11T04:17:06.238Z,1.80
2022-09-11T04:19:34.275Z,1.50
2022-09-11T04:22:03.189Z,2.43
2022-09-11T04:24:33.861Z,1.77
2022-09-11T04:27:01.106Z,3.10
2022-09-11T04:29:32.456Z,1.70
2022-09-11T04:31:59.730Z,1.40
2022-09-11T04:34:31.874Z,1.70
2022-09-11T04:36:58.701Z,1.80
2022-09-11T04:39:30.800Z,1.40
2022-09-11T04:41:58.682Z,1.20
2022-09-11T04:44:27.525Z,1.10
2022-09-11T04:46:56.311Z,1.20
2022-09-11T04:49:25.905Z,1.30
2022-09-11T04:51:54.481Z,1.20
2022-09-11T04:54:24.876Z,1.13
2022-09-11T04:56:53.503Z,1.87
2022-09-11T04:59:22.988Z,1.20
2022-09-11T05:02:23.381Z,1.27
2022-09-11T05:04:53.690Z,1.67
2022-09-11T05:07:21.929Z,1.30
2022-09-11T05:09:54.422Z,1.10
2022-09-11T05:12:23.213Z,1.10
2022-09-11T05:14:51.215Z,1.50
2022-09-11T05:17:19.249Z,1.63
2022-09-11T05:19:48.725Z,1.40
2022-09-11T05:22:15.894Z,1.17
2022-09-11T05:24:48.503Z,1.57
2022-09-11T05:27:15.751Z,1.37
2022-09-11T05:29:44.114Z,1.97
2022-09-11T05:32:13.841Z,1.50
2022-09-11T05:34:43.572Z,1.53
2022-09-11T05:37:14.786Z,1.37
2022-09-11T05:39:46.388Z,1.47
2022-09-11T05:42:15.198Z,1.30
2022-09-11T05:44:47.337Z,1.30
2022-09-11T05:47:19.204Z,1.87
2022-09-11T05:49:50.470Z,1.50
2022-09-11T05:52:18.234Z,1.73
2022-09-11T05:54:46.511Z,2.10
2022-09-11T05:57:14.740Z,1.20
2022-09-11T05:59:42.974Z,2.27
2022-09-11T06:02:11.974Z,1.90
2022-09-11T06:04:44.887Z,2.00
2022-09-11T06:07:13.936Z,1.53
2022-09-11T06:09:43.723Z,2.00
2022-09-11T06:12:12.430Z,1.50
2022-09-11T06:14:44.373Z,1.90
2022-09-11T06:17:12.181Z,1.83
2022-09-11T06:19:41.061Z,2.40
2022-09-11T06:22:08.788Z,2.10
2022-09-11T06:24:42.039Z,2.00
2022-09-11T06:27:09.815Z,1.97
2022-09-11T06:29:42.139Z,1.90
2022-09-11T06:32:09.868Z,1.63
2022-09-11T06:34:40.428Z,1.70
2022-09-11T06:37:10.780Z,1.50
2022-09-11T06:39:38.865Z,2.23
2022-09-11T06:42:07.632Z,2.27
2022-09-11T06:44:38.033Z,2.30
2022-09-11T06:47:07.037Z,2.33
2022-09-11T06:49:35.950Z,2.00
2022-09-11T06:52:32.720Z,1.90
2022-09-11T06:55:16.157Z,2.60
2022-09-11T06:57:52.691Z,2.03
2022-09-11T07:00:25.127Z,2.13
2022-09-11T07:02:53.547Z,1.80
2022-09-11T07:05:22.677Z,2.10
2022-09-11T07:07:56.917Z,1.53
2022-09-11T07:10:25.906Z,2.07
2022-09-11T07:12:59.022Z,1.87
2022-09-11T07:15:26.867Z,2.50
2022-09-11T07:17:55.300Z,2.60
2022-09-11T07:20:22.898Z,2.73
2022-09-11T07:22:50.888Z,3.07
2022-09-11T07:25:19.021Z,3.50
2022-09-11T07:27:48.404Z,5.00
2022-09-11T07:30:15.852Z,4.57
2022-09-11T07:32:49.868Z,4.87
2022-09-11T07:35:21.602Z,4.60
2022-09-11T07:37:52.986Z,4.53
2022-09-11T07:40:24.602Z,5.30
2022-09-11T07:42:51.892Z,5.40
2022-09-11T07:45:22.990Z,6.30
2022-09-11T07:47:51.813Z,6.37
2022-09-11T07:50:24.164Z,6.40
2022-09-11T07:52:52.209Z,6.63
2022-09-11T07:55:19.796Z,6.30
2022-09-11T07:57:49.646Z,6.43
2022-09-11T08:00:18.124Z,6.70
2022-09-11T08:02:49.215Z,7.30
2022-09-11T08:05:26.332Z,7.93
2022-09-11T08:07:55.459Z,7.40
2022-09-11T08:10:27.495Z,7.80
2022-09-11T08:13:00.045Z,6.80
2022-09-11T08:15:32.858Z,7.37
2022-09-11T08:18:02.785Z,7.20
2022-09-11T08:20:31.336Z,6.47
2022-09-11T08:22:59.531Z,5.33
2022-09-11T08:25:29.338Z,4.90
2022-09-11T08:27:59.658Z,4.70
2022-09-11T08:30:27.856Z,5.30
2022-09-11T08:32:55.982Z,5.30
2022-09-11T08:35:22.904Z,4.17
2022-09-11T08:37:54.953Z,4.70
2022-09-11T08:40:22.867Z,4.17
2022-09-11T08:42:52.931Z,4.20
2022-09-11T08:45:23.796Z,4.40
2022-09-11T08:47:55.242Z,3.77
2022-09-11T08:50:30.065Z,3.50
2022-09-11T08:53:02.337Z,3.60
2022-09-11T08:55:56.663Z,3.27
2022-09-11T08:58:42.029Z,3.40
2022-09-11T09:01:29.047Z,2.93
2022-09-11T09:04:28.495Z,3.40
2022-09-11T09:07:28.234Z,3.17
2022-09-11T09:10:27.987Z,2.40
2022-09-11T09:13:45.356Z,2.30
2022-09-11T09:16:52.195Z,1.90
2022-09-11T09:19:41.828Z,2.43
2022-09-11T09:22:19.830Z,2.20
2022-09-11T09:25:00.218Z,2.53
2022-09-11T09:27:40.045Z,2.50
2022-09-11T09:30:27.270Z,3.30
2022-09-11T09:33:01.911Z,2.70
2022-09-11T09:35:42.029Z,2.37
2022-09-11T09:38:25.118Z,2.27
2022-09-11T09:41:06.777Z,3.10
2022-09-11T09:44:01.985Z,3.43
2022-09-11T09:46:42.009Z,3.13
2022-09-11T09:49:11.797Z,2.70
2022-09-11T09:51:40.660Z,2.87
2022-09-11T09:54:15.930Z,2.70
2022-09-11T09:56:56.935Z,2.97
2022-09-11T09:59:50.758Z,2.70
2022-09-11T10:02:52.753Z,3.07
2022-09-11T10:05:26.013Z,3.57
2022-09-11T10:08:04.376Z,3.10
2022-09-11T10:10:36.267Z,3.10
2022-09-11T10:13:19.580Z,2.80
2022-09-11T10:15:50.065Z,3.10
2022-09-11T10:18:40.248Z,3.53
2022-09-11T10:21:13.888Z,3.80
2022-09-11T10:24:03.030Z,3.60
2022-09-11T10:26:50.860Z,3.57
2022-09-11T10:29:30.966Z,4.23
2022-09-11T10:32:02.726Z,3.20
2022-09-11T10:34:40.993Z,2.90
2022-09-11T10:37:13.937Z,3.43
2022-09-11T10:39:45.730Z,3.13
2022-09-11T10:42:37.850Z,2.53
2022-09-11T10:45:16.916Z,2.60
2022-09-11T10:47:46.027Z,2.70
2022-09-11T10:50:24.893Z,3.47
2022-09-11T10:52:57.980Z,3.30
2022-09-11T10:55:35.313Z,2.43
2022-09-11T10:58:08.255Z,2.80
2022-09-11T11:00:38.626Z,2.50
2022-09-11T11:03:17.046Z,2.33
2022-09-11T11:06:14.201Z,2.17
2022-09-11T11:09:03.932Z,2.47
2022-09-11T11:11:56.069Z,2.87
2022-09-11T11:14:56.108Z,2.37
2022-09-11T11:18:06.479Z,2.97
2022-09-11T11:21:07.529Z,2.57
2022-09-11T11:24:05.245Z,2.47
2022-09-11T11:26:44.437Z,2.57
2022-09-11T11:29:36.910Z,2.33
2022-09-11T11:32:15.852Z,2.93
2022-09-11T11:35:22.936Z,2.53
2022-09-11T11:37:53.863Z,2.50
2022-09-11T11:40:40.409Z,2.30
2022-09-11T11:43:12.059Z,3.30
2022-09-11T11:45:45.998Z,3.20
2022-09-11T11:48:41.060Z,2.90
2022-09-11T11:51:15.297Z,3.33
2022-09-11T11:54:12.295Z,2.63
2022-09-11T11:57:22.600Z,3.47
2022-09-11T12:00:09.547Z,2.60
2022-09-11T12:03:04.304Z,2.90
2022-09-11T12:05:34.570Z,2.60
2022-09-11T12:08:02.730Z,2.60
2022-09-11T12:10:38.003Z,3.93
2022-09-11T12:13:18.124Z,14.60
2022-09-11T12:16:11.460Z,12.73
2022-09-11T12:18:42.299Z,12.87
2022-09-11T12:21:23.045Z,13.00
2022-09-11T12:23:49.898Z,11.80
2022-09-11T12:26:24.869Z,9.50
2022-09-11T12:29:20.218Z,7.43
2022-09-11T12:31:53.368Z,6.90
2022-09-11T12:34:39.383Z,4.80
2022-09-11T12:37:14.797Z,4.80
2022-09-11T12:39:53.185Z,4.90
2022-09-11T12:42:23.734Z,4.80
2022-09-11T12:44:54.162Z,4.03
2022-09-11T12:47:24.197Z,4.37
2022-09-11T12:50:17.406Z,4.67
2022-09-11T12:52:46.433Z,3.50
2022-09-11T12:55:34.966Z,3.80
2022-09-11T12:58:40.698Z,4.70
2022-09-11T13:01:10.351Z,5.40
2022-09-11T13:04:03.443Z,4.63
2022-09-11T13:06:47.620Z,4.43
2022-09-11T13:09:22.783Z,5.13
2022-09-11T13:11:53.713Z,5.40
2022-09-11T13:14:28.029Z,5.00
2022-09-11T13:17:24.043Z,5.73
2022-09-11T13:19:51.631Z,4.90
2022-09-11T13:22:31.400Z,5.27
2022-09-11T13:25:15.678Z,5.40
2022-09-11T13:27:55.422Z,6.17
2022-09-11T13:30:24.851Z,5.57
2022-09-11T13:33:07.214Z,6.13
2022-09-11T13:35:35.576Z,7.47
2022-09-11T13:38:11.977Z,7.67
2022-09-11T13:40:38.931Z,8.53
2022-09-11T13:43:07.195Z,8.67
2022-09-11T13:45:34.430Z,8.53
2022-09-11T13:48:11.711Z,9.40
2022-09-11T13:50:39.221Z,9.63
2022-09-11T13:53:06.107Z,10.13
2022-09-11T13:55:33.958Z,9.80
2022-09-11T13:58:02.636Z,11.40
2022-09-11T14:00:40.130Z,9.63
2022-09-11T14:03:29.386Z,8.60
2022-09-11T14:06:04.606Z,7.90
2022-09-11T14:08:42.751Z,7.47
2022-09-11T14:11:19.976Z,7.00
2022-09-11T14:13:50.654Z,7.30
2022-09-11T14:16:25.206Z,5.80
2022-09-11T14:19:07.179Z,5.30
2022-09-11T14:21:41.658Z,5.00
2022-09-11T14:24:33.241Z,6.07
2022-09-11T14:27:04.484Z,4.40
2022-09-11T14:29:36.733Z,4.27
2022-09-11T14:32:32.907Z,3.93
2022-09-11T14:35:02.581Z,3.87
2022-09-11T14:37:34.508Z,4.20
2022-09-11T14:40:06.966Z,3.50
2022-09-11T14:42:36.661Z,3.33
2022-09-11T14:45:31.909Z,3.23
2022-09-11T14:48:00.222Z,3.60
2022-09-11T14:50:28.293Z,3.30
2022-09-11T14:52:55.559Z,3.40
2022-09-11T14:55:23.298Z,3.27
2022-09-11T14:57:50.059Z,3.33
2022-09-11T15:00:19.455Z,2.70
2022-09-11T15:02:47.419Z,2.80
2022-09-11T15:05:23.610Z,3.20
2022-09-11T15:07:53.039Z,2.60
2022-09-11T15:10:20.585Z,2.80
2022-09-11T15:12:49.065Z,2.37
2022-09-11T15:15:19.274Z,2.77
2022-09-11T15:17:47.295Z,2.60
2022-09-11T15:20:14.134Z,2.33
2022-09-11T15:22:42.151Z,2.43
2022-09-11T15:25:09.201Z,2.40
2022-09-11T15:27:37.097Z,1.90
2022-09-11T15:30:07.505Z,2.20
2022-09-11T15:32:35.606Z,2.20
2022-09-11T15:35:06.163Z,1.80
2022-09-11T15:37:34.296Z,2.00
2022-09-11T15:40:02.045Z,1.97
2022-09-11T15:42:29.320Z,2.00
2022-09-11T15:44:56.223Z,1.80
2022-09-11T15:47:24.166Z,1.60
2022-09-11T15:49:51.544Z,1.53
2022-09-11T15:52:20.007Z,1.83
2022-09-11T15:54:48.780Z,2.00
2022-09-11T15:57:17.309Z,1.50
2022-09-11T15:59:44.240Z,1.40
2022-09-11T16:02:12.623Z,1.93
2022-09-11T16:04:40.160Z,1.67
2022-09-11T16:07:08.351Z,2.00
2022-09-11T16:09:35.542Z,2.73
2022-09-11T16:12:04.946Z,1.67
2022-09-11T16:14:35.134Z,2.13
2022-09-11T16:17:05.900Z,1.80
2022-09-11T16:19:34.658Z,1.80
2022-09-11T16:22:04.630Z,1.80
2022-09-11T16:24:37.268Z,1.87
2022-09-11T16:27:07.455Z,1.73
2022-09-11T16:30:05.521Z,1.90
2022-09-11T16:32:37.478Z,1.50
2022-09-11T16:35:08.271Z,1.60
2022-09-11T16:37:37.076Z,1.70
2022-09-11T16:40:05.221Z,1.40
2022-09-11T16:42:32.445Z,1.47
2022-09-11T16:45:00.530Z,1.50
2022-09-11T16:47:30.483Z,1.40
2022-09-11T16:50:07.533Z,1.30
2022-09-11T16:52:35.564Z,1.60
2022-09-11T16:55:05.056Z,1.50
2022-09-11T16:57:33.289Z,1.50
2022-09-11T17:00:04.939Z,1.33
2022-09-11T17:02:32.196Z,1.70
2022-09-11T17:05:00.296Z,1.70
2022-09-11T17:07:27.335Z,1.60
2022-09-11T17:09:55.282Z,1.63
2022-09-11T17:12:22.297Z,1.50
2022-09-11T17:14:50.189Z,1.37
2022-09-11T17:17:18.090Z,1.40
2022-09-11T17:19:45.188Z,1.23
2022-09-11T17:22:14.055Z,1.20
2022-09-11T17:24:41.305Z,1.40
2022-09-11T17:27:09.392Z,1.30
2022-09-11T17:29:36.206Z,1.30
2022-09-11T17:32:26.663Z,1.17
2022-09-11T17:34:51.605Z,1.10
2022-09-11T17:37:20.037Z,1.10
2022-09-11T17:39:48.323Z,1.20
2022-09-11T17:42:16.246Z,0.93
2022-09-11T17:44:43.232Z,1.00
2022-09-11T17:47:11.491Z,0.90
2022-09-11T17:49:39.204Z,0.90
2022-09-11T17:52:07.365Z,0.97
2022-09-11T17:54:34.222Z,0.80
2022-09-11T17:57:02.523Z,0.80
2022-09-11T17:59:30.189Z,0.80
2022-09-11T18:01:59.894Z,0.83
2022-09-11T18:04:27.967Z,0.80
2022-09-11T18:06:56.227Z,0.80
2022-09-11T18:09:24.161Z,0.80
2022-09-11T18:11:53.903Z,0.70
2022-09-11T18:14:22.031Z,0.70
2022-09-11T18:16:50.515Z,0.80
2022-09-11T18:19:22.007Z,0.70
2022-09-11T18:21:50.655Z,0.70
2022-09-11T18:24:20.583Z,0.60
2022-09-11T18:26:50.880Z,0.70
2022-09-11T18:29:20.539Z,0.70
2022-09-11T18:31:51.735Z,0.60
2022-09-11T18:34:25.853Z,0.70
2022-09-11T18:36:53.590Z,0.70
2022-09-11T18:39:21.767Z,0.60
2022-09-11T18:41:50.343Z,0.60
2022-09-11T18:44:20.111Z,0.60
2022-09-11T18:46:48.280Z,0.60
2022-09-11T18:49:16.542Z,0.57
2022-09-11T18:51:44.212Z,0.60
2022-09-11T18:54:18.405Z,0.60
2022-09-11T18:56:47.555Z,0.60
2022-09-11T18:59:16.237Z,0.60
2022-09-11T19:01:44.194Z,0.93
2022-09-11T19:04:14.279Z,0.60
2022-09-11T19:06:41.401Z,0.60
2022-09-11T19:09:10.496Z,0.60
2022-09-11T19:11:38.470Z,0.60
2022-09-11T19:14:08.166Z,0.60
2022-09-11T19:16:36.914Z,0.50
2022-09-11T19:19:04.463Z,0.60
2022-09-11T19:21:33.114Z,0.60
2022-09-11T19:24:01.068Z,0.70
2022-09-11T19:26:39.781Z,0.57
2022-09-11T19:29:08.779Z,0.60
2022-09-11T19:31:39.165Z,0.87
2022-09-11T19:34:07.685Z,0.60
2022-09-11T19:36:36.315Z,0.57
2022-09-11T19:39:05.814Z,0.60
2022-09-11T19:41:37.342Z,0.80
2022-09-11T19:44:07.815Z,0.60
2022-09-11T19:46:37.321Z,0.50
2022-09-11T19:49:06.590Z,0.60
2022-09-11T19:51:40.899Z,0.70
2022-09-11T19:54:10.957Z,0.80
2022-09-11T19:56:38.570Z,0.63
2022-09-11T19:59:08.307Z,0.60
2022-09-11T20:01:35.710Z,0.90
2022-09-11T20:04:04.341Z,0.60
2022-09-11T20:06:33.514Z,0.60
2022-09-11T20:09:29.284Z,0.70
2022-09-11T20:11:49.482Z,0.60
2022-09-11T20:14:17.649Z,0.60
2022-09-11T20:16:45.343Z,0.60
2022-09-11T20:19:15.037Z,0.70
2022-09-11T20:21:43.382Z,0.60
2022-09-11T20:24:11.653Z,0.60
2022-09-11T20:26:39.282Z,0.60
2022-09-11T20:29:12.243Z,0.60
2022-09-11T20:31:46.938Z,0.60
2022-09-11T20:34:19.566Z,0.50
2022-09-11T20:36:49.748Z,0.50
2022-09-11T20:39:17.649Z,0.90
2022-09-11T20:41:45.360Z,0.60
2022-09-11T20:44:13.244Z,0.60
2022-09-11T20:46:40.726Z,0.50
2022-09-11T20:49:08.604Z,0.60
2022-09-11T20:51:36.661Z,1.00
2022-09-11T20:54:04.676Z,0.60
2022-09-11T20:56:32.479Z,0.50
2022-09-11T20:59:00.607Z,0.60
2022-09-11T21:01:33.666Z,0.60
2022-09-11T21:04:03.260Z,0.60
2022-09-11T21:06:33.008Z,0.60
2022-09-11T21:09:06.781Z,0.50
2022-09-11T21:11:36.441Z,0.93
2022-09-11T21:14:05.779Z,0.60
2022-09-11T21:16:34.533Z,0.60
2022-09-11T21:19:02.124Z,0.60
2022-09-11T21:21:31.531Z,0.60
2022-09-11T21:24:03.980Z,0.60
2022-09-11T21:26:33.139Z,0.60
2022-09-11T21:29:02.265Z,0.50
2022-09-11T21:31:30.499Z,0.70
2022-09-11T21:33:57.820Z,0.60
2022-09-11T21:36:26.694Z,0.60
2022-09-11T21:38:54.747Z,0.60
2022-09-11T21:41:22.796Z,0.60
2022-09-11T21:43:50.339Z,0.60
2022-09-11T21:46:18.200Z,0.70
2022-09-11T21:48:45.297Z,0.60
2022-09-11T21:51:16.586Z,0.60
2022-09-11T21:53:46.722Z,0.60
2022-09-11T21:56:24.913Z,0.50
2022-09-11T21:58:54.107Z,0.60
2022-09-11T22:01:22.749Z,0.60
2022-09-11T22:03:52.233Z,0.60
2022-09-11T22:06:21.582Z,0.60
2022-09-11T22:08:50.215Z,0.60
2022-09-11T22:11:17.387Z,0.60
2022-09-11T22:13:46.660Z,0.60
2022-09-11T22:16:18.641Z,0.60
2022-09-11T22:18:49.323Z,0.60
2022-09-11T22:21:16.762Z,0.60
2022-09-11T22:23:44.873Z,0.90
2022-09-11T22:26:17.895Z,0.77
2022-09-11T22:28:46.631Z,0.60
2022-09-11T22:31:20.473Z,0.60
2022-09-11T22:33:47.761Z,0.60
2022-09-11T22:36:26.607Z,0.60
2022-09-11T22:38:54.955Z,0.50
2022-09-11T22:41:23.406Z,0.60
2022-09-11T22:43:50.460Z,0.60
2022-09-11T22:46:20.903Z,0.60
2022-09-11T22:48:49.779Z,0.70
2022-09-11T22:51:17.401Z,1.33
2022-09-11T22:53:45.954Z,0.67
2022-09-11T22:56:13.847Z,0.60
2022-09-11T22:58:42.329Z,0.60
2022-09-11T23:01:11.122Z,0.73
2022-09-11T23:03:39.270Z,0.60
2022-09-11T23:06:24.840Z,0.70
2022-09-11T23:08:54.033Z,0.60
2022-09-11T23:11:22.068Z,0.60
2022-09-11T23:13:50.777Z,0.60
2022-09-11T23:16:24.285Z,0.60
2022-09-11T23:18:57.427Z,0.60
2022-09-11T23:21:25.223Z,0.70
2022-09-11T23:23:54.895Z,0.60
2022-09-11T23:26:23.978Z,0.60
2022-09-11T23:28:52.505Z,0.60
2022-09-11T23:31:28.719Z,0.60
2022-09-11T23:33:59.245Z,0.60
2022-09-11T23:36:28.684Z,0.80
2022-09-11T23:38:56.790Z,0.60
2022-09-11T23:41:24.905Z,0.70
2022-09-11T23:43:52.925Z,0.60
2022-09-11T23:46:21.534Z,0.90
2022-09-11T23:48:49.700Z,0.77
2022-09-11T23:51:17.700Z,0.67
2022-09-11T23:53:45.457Z,0.60
2022-09-11T23:56:14.566Z,0.60
2022-09-11T23:58:42.413Z,0.70
